sensor_id;sensor_type;location;lat;lon;timestamp;pressure;altitude;pressure_sealevel;temperature;humidity
22605;BME280;11469;49.024;8.246;2023-04-30T00:02:13;100779.34;;;12.03;97.45
22605;BME280;11469;49.024;8.246;2023-04-30T00:04:39;100779.97;;;11.96;97.40
22605;BME280;11469;49.024;8.246;2023-04-30T00:07:04;100785.22;;;11.98;98.00
22605;BME280;11469;49.024;8.246;2023-04-30T00:09:30;100778.78;;;11.98;98.18
22605;BME280;11469;49.024;8.246;2023-04-30T00:11:55;100791.13;;;11.93;98.55
22605;BME280;11469;49.024;8.246;2023-04-30T00:14:20;100780.59;;;11.90;98.69
22605;BME280;11469;49.024;8.246;2023-04-30T00:16:46;100784.06;;;11.99;97.99
22605;BME280;11469;49.024;8.246;2023-04-30T00:19:11;100790.75;;;11.94;97.81
22605;BME280;11469;49.024;8.246;2023-04-30T00:21:37;100795.09;;;11.92;98.02
22605;BME280;11469;49.024;8.246;2023-04-30T00:24:02;100789.22;;;11.97;97.78
22605;BME280;11469;49.024;8.246;2023-04-30T00:26:28;100791.13;;;11.93;98.13
22605;BME280;11469;49.024;8.246;2023-04-30T00:28:53;100791.47;;;11.91;98.18
22605;BME280;11469;49.024;8.246;2023-04-30T00:31:18;100787.19;;;11.82;98.62
22605;BME280;11469;49.024;8.246;2023-04-30T00:33:44;100790.09;;;11.85;98.83
22605;BME280;11469;49.024;8.246;2023-04-30T00:36:09;100792.03;;;11.97;98.19
22605;BME280;11469;49.024;8.246;2023-04-30T00:38:35;100791.22;;;11.96;98.29
22605;BME280;11469;49.024;8.246;2023-04-30T00:41:00;100784.50;;;12.01;98.10
22605;BME280;11469;49.024;8.246;2023-04-30T00:43:26;100776.34;;;11.96;98.48
22605;BME280;11469;49.024;8.246;2023-04-30T00:45:51;100773.25;;;11.85;98.88
22605;BME280;11469;49.024;8.246;2023-04-30T00:48:17;100771.63;;;11.84;98.74
22605;BME280;11469;49.024;8.246;2023-04-30T00:50:43;100776.53;;;11.87;98.81
22605;BME280;11469;49.024;8.246;2023-04-30T00:53:12;100770.53;;;11.89;98.64
22605;BME280;11469;49.024;8.246;2023-04-30T00:55:40;100764.38;;;11.83;98.89
22605;BME280;11469;49.024;8.246;2023-04-30T00:58:07;100762.56;;;11.75;99.15
22605;BME280;11469;49.024;8.246;2023-04-30T01:00:33;100767.84;;;11.77;99.71
22605;BME280;11469;49.024;8.246;2023-04-30T01:02:59;100772.59;;;11.76;99.72
22605;BME280;11469;49.024;8.246;2023-04-30T01:05:25;100770.44;;;11.70;99.70
22605;BME280;11469;49.024;8.246;2023-04-30T01:07:51;100771.16;;;11.67;100.00
22605;BME280;11469;49.024;8.246;2023-04-30T01:10:18;100767.63;;;11.70;99.88
22605;BME280;11469;49.024;8.246;2023-04-30T01:18:02;100771.88;;;11.63;100.00
22605;BME280;11469;49.024;8.246;2023-04-30T01:20:29;100759.81;;;11.63;100.00
22605;BME280;11469;49.024;8.246;2023-04-30T01:25:52;100760.63;;;11.63;100.00
22605;BME280;11469;49.024;8.246;2023-04-30T01:28:24;100762.06;;;11.57;100.00
22605;BME280;11469;49.024;8.246;2023-04-30T01:30:49;100757.38;;;11.61;100.00
22605;BME280;11469;49.024;8.246;2023-04-30T01:33:15;100751.31;;;11.59;100.00
22605;BME280;11469;49.024;8.246;2023-04-30T01:35:56;100756.00;;;11.55;100.00
22605;BME280;11469;49.024;8.246;2023-04-30T01:41:19;100751.66;;;11.58;100.00
22605;BME280;11469;49.024;8.246;2023-04-30T01:46:29;100748.41;;;11.56;100.00
22605;BME280;11469;49.024;8.246;2023-04-30T01:51:43;100746.09;;;11.46;100.00
22605;BME280;11469;49.024;8.246;2023-04-30T01:56:58;100750.28;;;11.52;100.00
22605;BME280;11469;49.024;8.246;2023-04-30T01:59:28;100748.28;;;11.52;100.00
22605;BME280;11469;49.024;8.246;2023-04-30T02:01:55;100756.00;;;11.55;100.00
22605;BME280;11469;49.024;8.246;2023-04-30T02:04:20;100749.00;;;11.49;100.00
22605;BME280;11469;49.024;8.246;2023-04-30T02:06:45;100753.72;;;11.45;100.00
22605;BME280;11469;49.024;8.246;2023-04-30T02:09:11;100759.88;;;11.51;100.00
22605;BME280;11469;49.024;8.246;2023-04-30T02:11:38;100749.63;;;11.43;100.00
22605;BME280;11469;49.024;8.246;2023-04-30T02:14:04;100753.25;;;11.43;100.00
22605;BME280;11469;49.024;8.246;2023-04-30T02:16:30;100750.19;;;11.48;100.00
22605;BME280;11469;49.024;8.246;2023-04-30T02:18:56;100749.28;;;11.44;100.00
22605;BME280;11469;49.024;8.246;2023-04-30T02:21:21;100753.72;;;11.45;100.00
22605;BME280;11469;49.024;8.246;2023-04-30T02:23:46;100761.47;;;11.36;100.00
22605;BME280;11469;49.024;8.246;2023-04-30T02:26:12;100764.75;;;11.38;100.00
22605;BME280;11469;49.024;8.246;2023-04-30T02:28:37;100760.28;;;11.37;100.00
22605;BME280;11469;49.024;8.246;2023-04-30T02:31:03;100767.44;;;11.35;100.00
22605;BME280;11469;49.024;8.246;2023-04-30T02:33:28;100759.41;;;11.33;100.00
22605;BME280;11469;49.024;8.246;2023-04-30T02:35:53;100764.56;;;11.31;100.00
22605;BME280;11469;49.024;8.246;2023-04-30T02:38:19;100761.84;;;11.35;100.00
22605;BME280;11469;49.024;8.246;2023-04-30T02:40:45;100767.09;;;11.36;100.00
22605;BME280;11469;49.024;8.246;2023-04-30T02:43:10;100759.78;;;11.32;100.00
22605;BME280;11469;49.024;8.246;2023-04-30T02:45:36;100764.91;;;11.29;100.00
22605;BME280;11469;49.024;8.246;2023-04-30T02:48:01;100766.19;;;11.32;100.00
22605;BME280;11469;49.024;8.246;2023-04-30T02:50:26;100748.19;;;11.33;100.00
22605;BME280;11469;49.024;8.246;2023-04-30T02:52:52;100755.69;;;11.29;100.00
22605;BME280;11469;49.024;8.246;2023-04-30T02:55:17;100743.53;;;11.25;100.00
22605;BME280;11469;49.024;8.246;2023-04-30T02:57:43;100759.56;;;11.24;100.00
22605;BME280;11469;49.024;8.246;2023-04-30T03:00:08;100753.84;;;11.21;100.00
22605;BME280;11469;49.024;8.246;2023-04-30T03:02:34;100751.50;;;11.23;100.00
22605;BME280;11469;49.024;8.246;2023-04-30T03:04:59;100745.09;;;11.22;100.00
22605;BME280;11469;49.024;8.246;2023-04-30T03:07:25;100750.69;;;11.22;100.00
22605;BME280;11469;49.024;8.246;2023-04-30T03:09:50;100756.09;;;11.15;100.00
22605;BME280;11469;49.024;8.246;2023-04-30T03:12:16;100747.69;;;11.15;100.00
22605;BME280;11469;49.024;8.246;2023-04-30T03:14:41;100747.69;;;11.15;100.00
22605;BME280;11469;49.024;8.246;2023-04-30T03:17:07;100747.31;;;11.17;100.00
22605;BME280;11469;49.024;8.246;2023-04-30T03:19:32;100752.22;;;11.20;100.00
22605;BME280;11469;49.024;8.246;2023-04-30T03:21:58;100743.34;;;11.18;100.00
22605;BME280;11469;49.024;8.246;2023-04-30T03:24:23;100742.16;;;11.19;100.00
22605;BME280;11469;49.024;8.246;2023-04-30T03:26:49;100735.63;;;11.15;100.00
22605;BME280;11469;49.024;8.246;2023-04-30T03:29:15;100740.44;;;11.14;100.00
22605;BME280;11469;49.024;8.246;2023-04-30T03:31:41;100743.00;;;11.19;100.00
22605;BME280;11469;49.024;8.246;2023-04-30T03:34:08;100734.94;;;11.18;100.00
22605;BME280;11469;49.024;8.246;2023-04-30T03:36:33;100733.66;;;11.15;100.00
22605;BME280;11469;49.024;8.246;2023-04-30T03:38:59;100738.94;;;11.05;100.00
22605;BME280;11469;49.024;8.246;2023-04-30T03:41:24;100740.59;;;11.06;100.00
22605;BME280;11469;49.024;8.246;2023-04-30T03:43:50;100741.28;;;11.03;100.00
22605;BME280;11469;49.024;8.246;2023-04-30T03:46:15;100737.56;;;10.98;100.00
22605;BME280;11469;49.024;8.246;2023-04-30T03:48:41;100728.81;;;11.00;100.00
22605;BME280;11469;49.024;8.246;2023-04-30T03:51:06;100733.13;;;10.97;100.00
22605;BME280;11469;49.024;8.246;2023-04-30T03:53:31;100738.84;;;11.01;100.00
22605;BME280;11469;49.024;8.246;2023-04-30T03:55:57;100726.72;;;10.97;100.00
22605;BME280;11469;49.024;8.246;2023-04-30T03:58:23;100728.69;;;10.96;100.00
22605;BME280;11469;49.024;8.246;2023-04-30T04:00:48;100734.78;;;10.98;100.00
22605;BME280;11469;49.024;8.246;2023-04-30T04:03:14;100739.22;;;11.00;100.00
22605;BME280;11469;49.024;8.246;2023-04-30T04:05:40;100733.94;;;10.98;100.00
22605;BME280;11469;49.024;8.246;2023-04-30T04:08:05;100741.53;;;10.97;100.00
22605;BME280;11469;49.024;8.246;2023-04-30T04:10:32;100743.19;;;10.98;100.00
22605;BME280;11469;49.024;8.246;2023-04-30T04:12:58;100746.34;;;10.97;100.00
22605;BME280;11469;49.024;8.246;2023-04-30T04:15:23;100751.25;;;11.00;100.00
22605;BME280;11469;49.024;8.246;2023-04-30T04:17:49;100743.53;;;10.97;100.00
22605;BME280;11469;49.024;8.246;2023-04-30T04:20:15;100751.69;;;11.02;100.00
22605;BME280;11469;49.024;8.246;2023-04-30T04:22:41;100750.66;;;10.94;100.00
22605;BME280;11469;49.024;8.246;2023-04-30T04:25:07;100752.56;;;10.90;100.00
22605;BME280;11469;49.024;8.246;2023-04-30T04:27:35;100751.13;;;10.96;100.00
22605;BME280;11469;49.024;8.246;2023-04-30T04:30:01;100751.84;;;10.93;100.00
22605;BME280;11469;49.024;8.246;2023-04-30T04:32:27;100760.50;;;10.88;100.00
22605;BME280;11469;49.024;8.246;2023-04-30T04:34:52;100755.47;;;10.94;100.00
22605;BME280;11469;49.024;8.246;2023-04-30T04:37:19;100755.34;;;10.90;100.00
22605;BME280;11469;49.024;8.246;2023-04-30T04:39:45;100762.25;;;10.93;100.00
22605;BME280;11469;49.024;8.246;2023-04-30T04:42:10;100755.34;;;10.90;100.00
22605;BME280;11469;49.024;8.246;2023-04-30T04:44:36;100760.00;;;10.98;100.00
22605;BME280;11469;49.024;8.246;2023-04-30T04:47:02;100753.78;;;11.05;100.00
22605;BME280;11469;49.024;8.246;2023-04-30T04:49:28;100761.84;;;11.07;100.00
22605;BME280;11469;49.024;8.246;2023-04-30T04:51:53;100760.47;;;11.01;100.00
22605;BME280;11469;49.024;8.246;2023-04-30T04:54:19;100761.38;;;11.05;100.00
22605;BME280;11469;49.024;8.246;2023-04-30T04:56:45;100766.84;;;11.13;100.00
22605;BME280;11469;49.024;8.246;2023-04-30T04:59:11;100771.09;;;11.07;100.00
22605;BME280;11469;49.024;8.246;2023-04-30T05:01:37;100770.63;;;11.05;100.00
22605;BME280;11469;49.024;8.246;2023-04-30T05:04:03;100768.84;;;11.13;100.00
22605;BME280;11469;49.024;8.246;2023-04-30T05:06:28;100762.41;;;11.12;100.00
22605;BME280;11469;49.024;8.246;2023-04-30T05:08:53;100764.72;;;11.22;100.00
22605;BME280;11469;49.024;8.246;2023-04-30T05:11:20;100757.38;;;11.18;100.00
22605;BME280;11469;49.024;8.246;2023-04-30T05:13:46;100769.97;;;11.24;100.00
22605;BME280;11469;49.024;8.246;2023-04-30T05:16:12;100771.59;;;11.25;100.00
22605;BME280;11469;49.024;8.246;2023-04-30T05:18:37;100772.63;;;11.33;100.00
22605;BME280;11469;49.024;8.246;2023-04-30T05:21:02;100767.91;;;11.37;100.00
22605;BME280;11469;49.024;8.246;2023-04-30T05:23:28;100769.72;;;11.45;100.00
22605;BME280;11469;49.024;8.246;2023-04-30T05:25:54;100774.78;;;11.39;100.00
22605;BME280;11469;49.024;8.246;2023-04-30T05:28:20;100768.81;;;11.41;100.00
22605;BME280;11469;49.024;8.246;2023-04-30T05:30:45;100771.56;;;11.53;100.00
22605;BME280;11469;49.024;8.246;2023-04-30T05:33:10;100773.56;;;11.52;100.00
22605;BME280;11469;49.024;8.246;2023-04-30T05:35:36;100784.88;;;11.56;100.00
22605;BME280;11469;49.024;8.246;2023-04-30T05:38:02;100781.72;;;11.57;100.00
22605;BME280;11469;49.024;8.246;2023-04-30T05:40:28;100780.91;;;11.57;100.00
22605;BME280;11469;49.024;8.246;2023-04-30T05:42:54;100782.28;;;11.63;99.71
22605;BME280;11469;49.024;8.246;2023-04-30T05:45:20;100778.38;;;11.68;99.58
22605;BME280;11469;49.024;8.246;2023-04-30T05:47:45;100784.09;;;11.71;99.82
22605;BME280;11469;49.024;8.246;2023-04-30T05:50:11;100772.75;;;11.80;99.45
22605;BME280;11469;49.024;8.246;2023-04-30T05:52:37;100780.16;;;11.88;98.03
22605;BME280;11469;49.024;8.246;2023-04-30T05:55:02;100784.94;;;11.87;98.41
22605;BME280;11469;49.024;8.246;2023-04-30T05:57:28;100784.31;;;11.94;96.55
22605;BME280;11469;49.024;8.246;2023-04-30T05:59:53;100776.00;;;12.13;96.52
22605;BME280;11469;49.024;8.246;2023-04-30T06:02:19;100783.47;;;12.41;94.90
22605;BME280;11469;49.024;8.246;2023-04-30T06:04:44;100786.81;;;12.62;93.05
22605;BME280;11469;49.024;8.246;2023-04-30T06:07:10;100789.78;;;12.88;93.06
22605;BME280;11469;49.024;8.246;2023-04-30T06:09:35;100780.50;;;13.04;90.25
22605;BME280;11469;49.024;8.246;2023-04-30T06:12:00;100781.50;;;12.95;89.52
22605;BME280;11469;49.024;8.246;2023-04-30T06:14:26;100779.78;;;12.72;88.85
22605;BME280;11469;49.024;8.246;2023-04-30T06:16:52;100782.06;;;12.66;87.70
22605;BME280;11469;49.024;8.246;2023-04-30T06:19:18;100782.00;;;12.47;87.85
22605;BME280;11469;49.024;8.246;2023-04-30T06:21:43;100778.66;;;12.57;88.16
22605;BME280;11469;49.024;8.246;2023-04-30T06:24:09;100778.66;;;12.57;87.72
22605;BME280;11469;49.024;8.246;2023-04-30T06:26:36;100777.63;;;12.65;87.36
22605;BME280;11469;49.024;8.246;2023-04-30T06:29:01;100773.28;;;12.87;86.21
22605;BME280;11469;49.024;8.246;2023-04-30T06:31:26;100781.19;;;12.62;86.67
22605;BME280;11469;49.024;8.246;2023-04-30T06:33:52;100783.91;;;12.58;87.29
22605;BME280;11469;49.024;8.246;2023-04-30T06:36:17;100780.44;;;12.65;86.53
22605;BME280;11469;49.024;8.246;2023-04-30T06:38:45;100787.06;;;12.57;86.91
22605;BME280;11469;49.024;8.246;2023-04-30T06:41:13;100775.19;;;12.63;87.01
22605;BME280;11469;49.024;8.246;2023-04-30T06:43:40;100780.28;;;12.58;87.06
22605;BME280;11469;49.024;8.246;2023-04-30T06:46:05;100774.47;;;12.86;85.47
22605;BME280;11469;49.024;8.246;2023-04-30T06:48:31;100775.81;;;13.11;84.77
22605;BME280;11469;49.024;8.246;2023-04-30T06:50:57;100775.47;;;13.13;84.54
22605;BME280;11469;49.024;8.246;2023-04-30T06:53:22;100770.94;;;13.27;84.79
22605;BME280;11469;49.024;8.246;2023-04-30T06:55:48;100777.25;;;13.40;83.79
22605;BME280;11469;49.024;8.246;2023-04-30T06:58:13;100782.94;;;13.63;82.39
22605;BME280;11469;49.024;8.246;2023-04-30T07:00:39;100777.22;;;13.59;82.33
22605;BME280;11469;49.024;8.246;2023-04-30T07:03:05;100778.84;;;13.60;80.70
22605;BME280;11469;49.024;8.246;2023-04-30T07:05:31;100782.66;;;13.49;81.15
22605;BME280;11469;49.024;8.246;2023-04-30T07:07:57;100781.59;;;13.57;81.89
22605;BME280;11469;49.024;8.246;2023-04-30T07:10:22;100777.91;;;13.76;80.35
22605;BME280;11469;49.024;8.246;2023-04-30T07:12:48;100775.84;;;13.73;80.63
22605;BME280;11469;49.024;8.246;2023-04-30T07:15:13;100772.34;;;13.56;81.68
22605;BME280;11469;49.024;8.246;2023-04-30T07:17:39;100773.72;;;13.66;80.36
22605;BME280;11469;49.024;8.246;2023-04-30T07:20:06;100767.66;;;13.87;79.88
22605;BME280;11469;49.024;8.246;2023-04-30T07:22:32;100771.53;;;13.79;80.11
22605;BME280;11469;49.024;8.246;2023-04-30T07:24:58;100777.16;;;13.79;78.92
22605;BME280;11469;49.024;8.246;2023-04-30T07:27:23;100767.22;;;13.62;80.55
22605;BME280;11469;49.024;8.246;2023-04-30T07:29:48;100773.41;;;13.94;79.87
22605;BME280;11469;49.024;8.246;2023-04-30T07:32:14;100769.28;;;14.11;78.98
22605;BME280;11469;49.024;8.246;2023-04-30T07:34:41;100768.63;;;14.21;77.33
22605;BME280;11469;49.024;8.246;2023-04-30T07:37:07;100767.25;;;14.34;76.73
22605;BME280;11469;49.024;8.246;2023-04-30T07:39:33;100755.72;;;14.20;78.21
22605;BME280;11469;49.024;8.246;2023-04-30T07:41:58;100765.78;;;14.17;77.70
22605;BME280;11469;49.024;8.246;2023-04-30T07:44:24;100761.22;;;14.36;78.24
22605;BME280;11469;49.024;8.246;2023-04-30T07:46:49;100761.38;;;14.43;77.06
22605;BME280;11469;49.024;8.246;2023-04-30T07:49:14;100763.72;;;14.41;76.12
22605;BME280;11469;49.024;8.246;2023-04-30T07:51:40;100767.41;;;14.71;74.54
22605;BME280;11469;49.024;8.246;2023-04-30T07:54:06;100762.09;;;14.66;75.04
22605;BME280;11469;49.024;8.246;2023-04-30T07:56:31;100756.44;;;14.63;75.26
22605;BME280;11469;49.024;8.246;2023-04-30T07:58:57;100750.41;;;14.64;75.43
22605;BME280;11469;49.024;8.246;2023-04-30T08:01:22;100757.47;;;14.81;75.21
22605;BME280;11469;49.024;8.246;2023-04-30T08:03:48;100753.84;;;15.10;73.36
22605;BME280;11469;49.024;8.246;2023-04-30T08:06:13;100760.28;;;15.07;73.81
22605;BME280;11469;49.024;8.246;2023-04-30T08:08:39;100774.50;;;15.18;70.82
22605;BME280;11469;49.024;8.246;2023-04-30T08:11:04;100758.16;;;15.34;70.03
22605;BME280;11469;49.024;8.246;2023-04-30T08:13:30;100758.59;;;15.36;68.86
22605;BME280;11469;49.024;8.246;2023-04-30T08:15:55;100770.44;;;15.49;69.79
22605;BME280;11469;49.024;8.246;2023-04-30T08:18:20;100764.13;;;15.59;67.56
22605;BME280;11469;49.024;8.246;2023-04-30T08:20:46;100766.47;;;15.53;66.80
22605;BME280;11469;49.024;8.246;2023-04-30T08:23:11;100761.75;;;15.65;67.67
22605;BME280;11469;49.024;8.246;2023-04-30T08:25:37;100764.34;;;15.80;66.92
22605;BME280;11469;49.024;8.246;2023-04-30T08:28:02;100765.69;;;15.93;65.74
22605;BME280;11469;49.024;8.246;2023-04-30T08:30:28;100771.22;;;15.83;65.00
22605;BME280;11469;49.024;8.246;2023-04-30T08:32:53;100767.47;;;15.72;65.99
22605;BME280;11469;49.024;8.246;2023-04-30T08:35:18;100770.94;;;15.95;65.98
22605;BME280;11469;49.024;8.246;2023-04-30T08:37:45;100763.06;;;15.74;66.86
22605;BME280;11469;49.024;8.246;2023-04-30T08:40:10;100759.56;;;15.51;68.33
22605;BME280;11469;49.024;8.246;2023-04-30T08:42:40;100762.13;;;15.63;65.17
22605;BME280;11469;49.024;8.246;2023-04-30T08:45:10;100773.03;;;16.02;65.73
22605;BME280;11469;49.024;8.246;2023-04-30T08:47:37;100766.19;;;16.03;66.27
22605;BME280;11469;49.024;8.246;2023-04-30T08:50:04;100760.91;;;16.01;66.25
22605;BME280;11469;49.024;8.246;2023-04-30T08:52:33;100759.59;;;15.91;64.92
22605;BME280;11469;49.024;8.246;2023-04-30T08:55:00;100760.88;;;16.45;65.46
22605;BME280;11469;49.024;8.246;2023-04-30T08:57:26;100766.06;;;16.40;60.58
22605;BME280;11469;49.024;8.246;2023-04-30T08:59:52;100768.44;;;16.34;61.88
22605;BME280;11469;49.024;8.246;2023-04-30T09:02:18;100761.56;;;15.84;63.02
22605;BME280;11469;49.024;8.246;2023-04-30T09:04:44;100769.19;;;15.80;62.96
22605;BME280;11469;49.024;8.246;2023-04-30T09:07:10;100768.69;;;15.71;63.28
22605;BME280;11469;49.024;8.246;2023-04-30T09:09:39;100773.19;;;15.79;64.00
22605;BME280;11469;49.024;8.246;2023-04-30T09:12:15;100766.72;;;16.22;63.69
22605;BME280;11469;49.024;8.246;2023-04-30T09:15:03;100764.47;;;15.95;61.04
22605;BME280;11469;49.024;8.246;2023-04-30T09:17:30;100763.22;;;15.88;63.13
22605;BME280;11469;49.024;8.246;2023-04-30T09:20:12;100767.22;;;16.32;62.22
22605;BME280;11469;49.024;8.246;2023-04-30T09:22:39;100760.88;;;16.45;61.20
22605;BME280;11469;49.024;8.246;2023-04-30T09:25:06;100750.84;;;16.62;60.99
22605;BME280;11469;49.024;8.246;2023-04-30T09:27:32;100758.09;;;16.52;58.96
22605;BME280;11469;49.024;8.246;2023-04-30T09:29:58;100763.03;;;16.66;59.28
22605;BME280;11469;49.024;8.246;2023-04-30T09:32:23;100758.19;;;16.67;57.95
22605;BME280;11469;49.024;8.246;2023-04-30T09:34:49;100765.47;;;16.68;57.00
22605;BME280;11469;49.024;8.246;2023-04-30T09:37:14;100756.22;;;16.74;56.71
22605;BME280;11469;49.024;8.246;2023-04-30T09:39:47;100755.34;;;16.67;57.68
22605;BME280;11469;49.024;8.246;2023-04-30T09:42:13;100755.13;;;16.35;58.77
22605;BME280;11469;49.024;8.246;2023-04-30T09:44:40;100764.78;;;16.30;59.01
22605;BME280;11469;49.024;8.246;2023-04-30T09:47:16;100753.50;;;16.34;58.61
22605;BME280;11469;49.024;8.246;2023-04-30T09:49:45;100762.47;;;16.43;58.54
22605;BME280;11469;49.024;8.246;2023-04-30T09:52:14;100756.03;;;16.49;58.48
22605;BME280;11469;49.024;8.246;2023-04-30T09:54:40;100769.78;;;16.51;57.25
22605;BME280;11469;49.024;8.246;2023-04-30T09:57:09;100754.66;;;16.84;57.11
22605;BME280;11469;49.024;8.246;2023-04-30T09:59:35;100753.47;;;16.88;56.39
22605;BME280;11469;49.024;8.246;2023-04-30T10:02:03;100740.00;;;16.68;55.29
22605;BME280;11469;49.024;8.246;2023-04-30T10:04:40;100755.09;;;16.89;55.74
22605;BME280;11469;49.024;8.246;2023-04-30T10:07:17;100756.16;;;16.67;55.63
22605;BME280;11469;49.024;8.246;2023-04-30T10:09:56;100759.00;;;16.67;55.64
22605;BME280;11469;49.024;8.246;2023-04-30T10:12:25;100752.91;;;16.65;55.93
22605;BME280;11469;49.024;8.246;2023-04-30T10:14:58;100743.66;;;16.68;55.76
22605;BME280;11469;49.024;8.246;2023-04-30T10:17:26;100753.63;;;16.55;55.87
22605;BME280;11469;49.024;8.246;2023-04-30T10:19:58;100748.94;;;16.22;57.24
22605;BME280;11469;49.024;8.246;2023-04-30T10:22:27;100743.75;;;16.27;56.73
22605;BME280;11469;49.024;8.246;2023-04-30T10:24:54;100742.81;;;16.64;56.89
22605;BME280;11469;49.024;8.246;2023-04-30T10:27:20;100740.06;;;16.78;55.47
22605;BME280;11469;49.024;8.246;2023-04-30T10:29:46;100741.84;;;16.42;55.74
22605;BME280;11469;49.024;8.246;2023-04-30T10:32:12;100717.91;;;16.29;55.92
22605;BME280;11469;49.024;8.246;2023-04-30T10:37:33;100722.91;;;16.50;55.62
22605;BME280;11469;49.024;8.246;2023-04-30T10:40:00;100713.59;;;16.46;56.25
22605;BME280;11469;49.024;8.246;2023-04-30T10:42:26;100708.75;;;16.50;55.39
22605;BME280;11469;49.024;8.246;2023-04-30T10:44:51;100701.03;;;16.43;54.19
22605;BME280;11469;49.024;8.246;2023-04-30T10:47:17;100713.19;;;16.47;55.35
22605;BME280;11469;49.024;8.246;2023-04-30T10:49:48;100707.88;;;16.39;54.50
22605;BME280;11469;49.024;8.246;2023-04-30T10:52:25;100704.41;;;16.67;53.97
22605;BME280;11469;49.024;8.246;2023-04-30T10:54:51;100703.53;;;16.59;53.94
22605;BME280;11469;49.024;8.246;2023-04-30T10:57:16;100716.00;;;16.44;53.84
22605;BME280;11469;49.024;8.246;2023-04-30T10:59:51;100714.03;;;16.51;52.79
22605;BME280;11469;49.024;8.246;2023-04-30T11:02:17;100704.91;;;16.79;52.49
22605;BME280;11469;49.024;8.246;2023-04-30T11:07:30;100698.97;;;17.16;51.70
22605;BME280;11469;49.024;8.246;2023-04-30T11:09:56;100699.41;;;17.25;53.83
22605;BME280;11469;49.024;8.246;2023-04-30T11:12:21;100692.97;;;17.32;51.92
22605;BME280;11469;49.024;8.246;2023-04-30T11:14:59;100697.50;;;17.69;52.54
22605;BME280;11469;49.024;8.246;2023-04-30T11:17:26;100699.06;;;17.52;51.37
22605;BME280;11469;49.024;8.246;2023-04-30T11:19:52;100690.16;;;17.39;51.82
22605;BME280;11469;49.024;8.246;2023-04-30T11:22:21;100690.56;;;17.59;51.36
22605;BME280;11469;49.024;8.246;2023-04-30T11:25:09;100684.97;;;17.77;51.01
22605;BME280;11469;49.024;8.246;2023-04-30T11:27:36;100686.91;;;17.55;50.22
22605;BME280;11469;49.024;8.246;2023-04-30T11:30:05;100689.75;;;17.51;51.09
22605;BME280;11469;49.024;8.246;2023-04-30T11:32:35;100681.63;;;17.29;49.21
22605;BME280;11469;49.024;8.246;2023-04-30T11:35:02;100687.31;;;17.53;49.80
22605;BME280;11469;49.024;8.246;2023-04-30T11:37:29;100682.00;;;17.27;50.49
22605;BME280;11469;49.024;8.246;2023-04-30T11:40:00;100678.06;;;17.67;49.21
22605;BME280;11469;49.024;8.246;2023-04-30T11:42:27;100678.84;;;17.64;49.60
22605;BME280;11469;49.024;8.246;2023-04-30T11:45:01;100676.84;;;17.72;50.36
22605;BME280;11469;49.024;8.246;2023-04-30T11:47:27;100673.97;;;17.57;50.87
22605;BME280;11469;49.024;8.246;2023-04-30T11:49:55;100674.00;;;17.68;50.77
22605;BME280;11469;49.024;8.246;2023-04-30T11:52:24;100667.53;;;17.68;50.64
22605;BME280;11469;49.024;8.246;2023-04-30T11:54:49;100666.31;;;17.72;49.11
22605;BME280;11469;49.024;8.246;2023-04-30T11:57:15;100669.97;;;17.73;48.58
22605;BME280;11469;49.024;8.246;2023-04-30T11:59:40;100659.38;;;17.55;48.72
22605;BME280;11469;49.024;8.246;2023-04-30T12:02:13;100669.56;;;17.85;47.42
22605;BME280;11469;49.024;8.246;2023-04-30T12:04:42;100656.16;;;18.21;46.87
22605;BME280;11469;49.024;8.246;2023-04-30T12:07:07;100662.22;;;18.34;47.11
22605;BME280;11469;49.024;8.246;2023-04-30T12:09:53;100657.00;;;18.00;48.08
22605;BME280;11469;49.024;8.246;2023-04-30T12:12:26;100661.03;;;18.10;48.55
22605;BME280;11469;49.024;8.246;2023-04-30T12:14:51;100655.41;;;17.85;48.32
22605;BME280;11469;49.024;8.246;2023-04-30T12:17:30;100656.97;;;17.65;48.38
22605;BME280;11469;49.024;8.246;2023-04-30T12:19:56;100652.16;;;17.69;48.63
22605;BME280;11469;49.024;8.246;2023-04-30T12:22:22;100650.94;;;17.80;48.41
22605;BME280;11469;49.024;8.246;2023-04-30T12:24:48;100651.34;;;17.89;49.94
22605;BME280;11469;49.024;8.246;2023-04-30T12:27:13;100653.31;;;17.64;49.34
22605;BME280;11469;49.024;8.246;2023-04-30T12:29:42;100650.13;;;17.69;48.24
22605;BME280;11469;49.024;8.246;2023-04-30T12:32:09;100643.19;;;17.56;48.23
22605;BME280;11469;49.024;8.246;2023-04-30T12:34:36;100654.59;;;17.77;48.04
22605;BME280;11469;49.024;8.246;2023-04-30T12:37:02;100642.84;;;17.72;47.79
22605;BME280;11469;49.024;8.246;2023-04-30T12:39:32;100642.44;;;17.66;48.18
22605;BME280;11469;49.024;8.246;2023-04-30T12:41:59;100646.84;;;17.53;49.17
22605;BME280;11469;49.024;8.246;2023-04-30T12:44:26;100656.16;;;17.57;50.03
22605;BME280;11469;49.024;8.246;2023-04-30T12:46:56;100644.84;;;17.46;50.08
22605;BME280;11469;49.024;8.246;2023-04-30T12:49:23;100632.66;;;17.53;50.85
22605;BME280;11469;49.024;8.246;2023-04-30T12:51:49;100638.75;;;17.51;49.99
22605;BME280;11469;49.024;8.246;2023-04-30T12:54:21;100645.22;;;17.38;49.78
22605;BME280;11469;49.024;8.246;2023-04-30T12:57:06;100636.31;;;17.50;50.26
22605;BME280;11469;49.024;8.246;2023-04-30T12:59:55;100641.63;;;17.87;49.87
22605;BME280;11469;49.024;8.246;2023-04-30T13:02:22;100623.81;;;17.72;48.33
22605;BME280;11469;49.024;8.246;2023-04-30T13:04:49;100631.47;;;18.00;48.31
22605;BME280;11469;49.024;8.246;2023-04-30T13:07:15;100631.47;;;18.00;48.89
22605;BME280;11469;49.024;8.246;2023-04-30T13:09:40;100631.88;;;18.13;48.48
22605;BME280;11469;49.024;8.246;2023-04-30T13:12:05;100624.16;;;18.13;48.39